Terminal Aerodrome Forecast
Issued by NWS Nashville, TN

Home | Current Version | Previous Version | Text Only | Print | Product List | Glossary On
Versions: 1 2 3 4 5 6 7 8 9 10 11 12 13 14 15 16 17 18 19 20 21 22 23 24 25 26 27 28 29 30 31 32 33 34 35 36
000
FTUS44 KOHX 211729
TAFBNA
TAF
KBNA 211729Z 2118/2218 16008KT P6SM FEW050 BKN110
     FM220600 13005KT P6SM OVC025
     FM220800 11006KT 2SM TSRA BR OVC007CB
     FM221000 14006KT 6SM -RA BR OVC015
     FM221500 18009KT P6SM BKN040=

USA.gov is the U.S. government's official web portal to all federal, state and local government web resources and services.